Time;durP1;ratioP1;P1;durP2;ratioP2;P2;SDS_P1;SDS_P2;PMS_P1;PMS_P2;Temp;Humidity;BMP_temperature;BMP_pressure;BME280_temperature;BME280_humidity;BME280_pressure;Samples;Min_cycle;Max_cycle;Signal;HPM_P1;HPM_P2
2022/06/06 00:02:06;;;;;;;57.35;29.67;;;15.90;99.90;;;;;;5093114;28;20361;-72
2022/06/06 00:04:33;;;;;;;58.78;29.75;;;16.00;99.90;;;;;;5094231;28;20092;-72
2022/06/06 00:06:59;;;;;;;54.20;29.20;;;15.90;99.90;;;;;;5094216;28;20426;-72
2022/06/06 00:09:27;;;;;;;59.28;30.95;;;15.80;99.90;;;;;;5094128;28;20484;-72
2022/06/06 00:11:56;;;;;;;62.65;32.55;;;15.80;99.90;;;;;;5094214;28;20165;-72
2022/06/06 00:14:22;;;;;;;60.30;31.60;;;15.90;99.90;;;;;;5094342;28;20039;-72
2022/06/06 00:16:48;;;;;;;70.53;33.85;;;16.00;99.90;;;;;;5093793;28;20027;-72
2022/06/06 00:19:13;;;;;;;73.15;36.42;;;15.70;99.90;;;;;;5094053;28;20024;-72
2022/06/06 00:21:41;;;;;;;77.05;34.33;;;15.60;99.90;;;;;;5093573;28;20487;-72
2022/06/06 00:24:08;;;;;;;83.47;40.70;;;15.60;99.90;;;;;;5094065;28;20032;-72
2022/06/06 00:26:35;;;;;;;92.65;41.92;;;15.60;99.90;;;;;;5093897;28;20050;-72
2022/06/06 00:29:02;;;;;;;93.00;42.38;;;15.80;99.90;;;;;;5091750;28;20024;-72
2022/06/06 00:37:00;;;;;;;84.63;41.95;;;15.80;99.90;;;;;;5093575;28;20423;-72
2022/06/06 00:39:26;;;;;;;85.18;42.00;;;15.80;99.90;;;;;;5092298;28;20015;-72
2022/06/06 00:41:54;;;;;;;83.07;41.58;;;16.00;99.90;;;;;;5093505;28;20469;-72
2022/06/06 00:44:40;;;;;;;82.72;40.50;;;15.90;99.90;;;;;;5093536;28;20020;-72
2022/06/06 00:47:24;;;;;;;75.68;39.25;;;15.90;99.90;;;;;;5092199;28;20039;-72
2022/06/06 00:49:59;;;;;;;67.80;36.42;;;15.60;99.90;;;;;;5087753;28;20086;-72
2022/06/06 00:52:38;;;;;;;75.25;39.10;;;15.70;99.90;;;;;;5093445;28;20016;-71
2022/06/06 00:55:10;;;;;;;67.20;37.47;;;15.50;99.90;;;;;;5093547;28;20035;-72
2022/06/06 00:57:43;;;;;;;73.47;35.92;;;15.70;99.90;;;;;;5092168;28;20422;-72
2022/06/06 01:00:14;;;;;;;70.63;38.05;;;15.60;99.90;;;;;;5092631;28;20020;-71
2022/06/06 01:02:40;;;;;;;70.68;37.05;;;15.70;99.90;;;;;;5093011;28;20131;-72
2022/06/06 01:05:07;;;;;;;66.13;35.25;;;15.70;99.90;;;;;;5091419;28;20043;-72
2022/06/06 01:07:33;;;;;;;66.80;35.92;;;15.60;99.90;;;;;;5093263;28;20479;-72
2022/06/06 01:10:00;;;;;;;63.25;32.40;;;15.50;99.90;;;;;;5092920;28;20039;-72
2022/06/06 01:12:28;;;;;;;62.00;34.22;;;15.50;99.90;;;;;;5093300;28;20024;-72
2022/06/06 01:14:57;;;;;;;66.15;34.38;;;15.40;99.90;;;;;;5093053;28;20476;-72
2022/06/06 01:17:52;;;;;;;67.72;34.53;;;15.40;99.90;;;;;;5092814;28;20023;-72
2022/06/06 01:20:51;;;;;;;72.15;36.13;;;15.40;99.90;;;;;;5092897;28;20063;-72
2022/06/06 01:23:58;;;;;;;69.18;35.58;;;15.40;99.90;;;;;;5071616;28;20036;-71
2022/06/06 01:27:05;;;;;;;66.97;33.80;;;15.40;99.90;;;;;;5086207;28;20496;-72
2022/06/06 01:29:37;;;;;;;61.25;31.27;;;15.60;99.90;;;;;;5070157;28;20044;-72
2022/06/06 01:32:20;;;;;;;65.63;32.83;;;15.40;99.90;;;;;;5081014;28;20084;-72
2022/06/06 01:34:50;;;;;;;65.88;33.47;;;15.40;99.90;;;;;;5086070;28;20111;-72
2022/06/06 01:37:36;;;;;;;65.85;33.22;;;15.40;99.90;;;;;;5088829;28;20032;-72
2022/06/06 01:40:05;;;;;;;63.10;32.20;;;15.40;99.90;;;;;;5079927;28;20575;-72
2022/06/06 01:42:34;;;;;;;54.72;30.50;;;15.40;99.90;;;;;;5081678;28;20119;-72
2022/06/06 01:45:12;;;;;;;61.13;29.45;;;15.40;99.90;;;;;;5092790;28;20473;-72
2022/06/06 01:47:43;;;;;;;55.78;28.38;;;15.50;99.90;;;;;;5092362;28;20024;-72
2022/06/06 01:50:10;;;;;;;43.58;26.55;;;15.50;99.90;;;;;;5088041;28;20036;-72
2022/06/06 01:52:52;;;;;;;37.45;24.13;;;15.50;99.90;;;;;;5092518;28;20545;-72
2022/06/06 01:55:19;;;;;;;43.17;22.77;;;15.20;99.90;;;;;;5092714;28;20031;-72
2022/06/06 01:57:46;;;;;;;42.63;24.05;;;15.10;99.90;;;;;;5092318;28;20123;-72
2022/06/06 02:00:13;;;;;;;39.15;20.50;;;15.10;99.90;;;;;;5092541;28;20419;-72
2022/06/06 02:02:43;;;;;;;43.80;23.65;;;15.10;99.90;;;;;;5091142;28;20358;-72
2022/06/06 02:05:13;;;;;;;41.08;21.95;;;15.00;99.90;;;;;;5092087;28;20032;-72
2022/06/06 02:07:41;;;;;;;47.42;22.52;;;14.90;99.90;;;;;;5079076;28;20028;-72
2022/06/06 02:10:09;;;;;;;37.08;21.45;;;14.80;99.90;;;;;;5092208;28;20089;-72
2022/06/06 02:12:40;;;;;;;38.05;21.30;;;14.70;99.90;;;;;;5092476;28;20027;-72
2022/06/06 02:15:08;;;;;;;35.95;21.52;;;14.80;99.90;;;;;;5092359;28;20028;-72
2022/06/06 02:17:33;;;;;;;41.55;20.92;;;14.70;99.90;;;;;;5092112;28;20028;-72
2022/06/06 02:20:01;;;;;;;41.17;21.02;;;14.50;99.90;;;;;;5093050;28;20030;-72
2022/06/06 02:22:28;;;;;;;34.38;20.40;;;14.50;99.90;;;;;;5095012;28;20035;-72
2022/06/06 02:24:54;;;;;;;35.17;21.05;;;14.50;99.90;;;;;;5096367;28;20383;-72
2022/06/06 02:27:19;;;;;;;45.10;22.70;;;14.50;99.90;;;;;;5096145;28;20028;-72
2022/06/06 02:29:45;;;;;;;37.35;19.20;;;14.40;99.90;;;;;;5095892;28;20034;-72
2022/06/06 02:32:11;;;;;;;43.00;20.85;;;14.20;99.90;;;;;;5095983;28;20597;-72
2022/06/06 02:34:38;;;;;;;33.15;20.38;;;14.20;99.90;;;;;;5095987;28;20460;-72
2022/06/06 02:37:04;;;;;;;30.67;19.23;;;14.30;99.90;;;;;;5096716;28;20032;-71
2022/06/06 02:39:30;;;;;;;33.38;19.75;;;14.20;99.90;;;;;;5092663;28;20035;-72
2022/06/06 02:41:56;;;;;;;34.85;18.60;;;14.20;99.90;;;;;;5083730;28;20081;-72
2022/06/06 02:44:23;;;;;;;33.58;19.08;;;14.20;99.90;;;;;;5095959;28;20031;-72
2022/06/06 02:46:50;;;;;;;40.58;20.90;;;14.10;99.90;;;;;;5095637;28;20035;-72
2022/06/06 02:49:16;;;;;;;34.70;19.15;;;14.10;99.90;;;;;;5088572;28;20029;-72
2022/06/06 02:51:42;;;;;;;38.08;20.27;;;14.00;99.90;;;;;;5093915;28;20036;-72
2022/06/06 02:54:08;;;;;;;36.53;20.05;;;13.90;99.90;;;;;;5095851;28;20101;-72
2022/06/06 02:56:34;;;;;;;36.80;21.27;;;13.90;99.90;;;;;;5094259;28;20527;-72
2022/06/06 02:59:04;;;;;;;41.42;21.27;;;13.90;99.90;;;;;;5095399;28;20073;-72
2022/06/06 03:01:30;;;;;;;45.20;22.80;;;13.90;99.90;;;;;;5095464;28;20017;-72
2022/06/06 03:03:56;;;;;;;43.05;22.98;;;13.90;99.90;;;;;;5095412;28;20111;-72
2022/06/06 03:06:57;;;;;;;44.15;23.08;;;14.00;99.90;;;;;;5095403;28;20528;-72
2022/06/06 03:09:36;;;;;;;42.55;22.67;;;13.80;99.90;;;;;;5074847;28;20098;-72
2022/06/06 03:12:20;;;;;;;28.67;15.88;;;13.70;99.90;;;;;;5095498;28;20148;-72
2022/06/06 03:14:49;;;;;;;38.55;22.08;;;13.60;99.90;;;;;;5095124;28;20115;-71
2022/06/06 03:20:49;;;;;;;33.05;20.40;;;13.60;99.90;;;;;;5093672;28;20040;-71
2022/06/06 03:23:41;;;;;;;45.00;21.27;;;13.50;99.90;;;;;;5095322;28;20028;-72
2022/06/06 03:26:45;;;;;;;36.65;19.65;;;13.50;99.90;;;;;;5077800;28;20033;-72
2022/06/06 03:29:34;;;;;;;38.38;19.70;;;13.40;99.90;;;;;;5093403;28;20024;-72
2022/06/06 03:32:18;;;;;;;36.42;20.05;;;13.40;99.90;;;;;;5094321;28;20024;-72
2022/06/06 03:34:50;;;;;;;35.28;17.70;;;13.40;99.90;;;;;;5083119;28;20024;-72
2022/06/06 03:37:52;;;;;;;28.33;16.25;;;13.40;99.90;;;;;;5094904;28;20032;-72
2022/06/06 03:40:28;;;;;;;40.85;19.92;;;13.20;99.90;;;;;;5081761;28;20044;-72
2022/06/06 03:43:26;;;;;;;43.22;19.35;;;13.30;99.90;;;;;;5090024;28;20032;-72
2022/06/06 03:46:21;;;;;;;37.30;16.85;;;13.30;99.90;;;;;;5094663;28;20028;-72
2022/06/06 03:49:01;;;;;;;35.13;17.20;;;13.40;99.90;;;;;;5083055;28;20432;-72
2022/06/06 03:52:01;;;;;;;33.35;16.55;;;13.50;99.90;;;;;;5090586;28;20388;-72
2022/06/06 03:54:43;;;;;;;27.85;15.65;;;13.50;99.90;;;;;;5094678;28;20016;-72
2022/06/06 03:57:13;;;;;;;24.85;15.45;;;13.40;99.90;;;;;;5081257;28;20043;-72
2022/06/06 03:59:41;;;;;;;29.00;15.05;;;13.40;99.90;;;;;;5094460;28;20081;-71
2022/06/06 04:02:10;;;;;;;24.30;13.45;;;13.20;99.90;;;;;;5094183;28;20465;-72
2022/06/06 04:04:36;;;;;;;27.83;13.93;;;13.20;99.90;;;;;;5093084;28;20063;-72
2022/06/06 04:07:03;;;;;;;21.90;13.38;;;13.30;99.90;;;;;;5094115;28;20054;-72
2022/06/06 04:09:33;;;;;;;24.77;13.48;;;13.30;99.90;;;;;;5094349;28;20044;-72
2022/06/06 04:12:29;;;;;;;21.33;12.05;;;13.30;99.90;;;;;;5094666;28;20388;-72
2022/06/06 04:15:10;;;;;;;18.65;11.02;;;13.40;99.90;;;;;;5094282;28;20027;-72
2022/06/06 04:17:52;;;;;;;18.83;10.13;;;13.30;99.90;;;;;;5094424;28;20369;-72
2022/06/06 04:20:21;;;;;;;23.52;10.13;;;13.20;99.90;;;;;;5094186;28;20038;-71
2022/06/06 04:22:52;;;;;;;19.13;9.60;;;13.20;99.90;;;;;;5093947;28;20422;-72
2022/06/06 04:25:24;;;;;;;16.50;9.00;;;13.20;99.90;;;;;;5092670;28;20440;-72
2022/06/06 04:28:02;;;;;;;19.80;9.63;;;13.30;99.90;;;;;;5092233;28;20533;-72
2022/06/06 04:30:55;;;;;;;15.73;9.25;;;13.30;99.90;;;;;;5093721;28;20044;-72
2022/06/06 04:33:40;;;;;;;17.15;9.80;;;13.30;99.90;;;;;;5092709;28;20024;-72
2022/06/06 04:36:18;;;;;;;17.63;9.88;;;13.30;99.90;;;;;;5093575;28;20145;-72
2022/06/06 04:39:13;;;;;;;16.92;9.90;;;13.30;99.90;;;;;;5093864;28;20384;-72
2022/06/06 04:41:58;;;;;;;18.00;9.13;;;13.20;99.90;;;;;;5078154;28;20055;-72
2022/06/06 04:44:37;;;;;;;18.08;9.20;;;13.10;99.90;;;;;;5092356;28;20160;-72
2022/06/06 04:47:21;;;;;;;16.23;8.32;;;13.30;99.90;;;;;;5092381;28;20063;-72
2022/06/06 04:49:48;;;;;;;15.98;7.80;;;13.50;99.90;;;;;;5085771;28;20123;-72
2022/06/06 04:52:16;;;;;;;11.68;7.25;;;13.40;99.90;;;;;;5093548;28;20058;-72
2022/06/06 04:54:44;;;;;;;13.60;7.57;;;13.50;99.90;;;;;;5093527;28;20379;-72
2022/06/06 04:57:11;;;;;;;13.85;7.18;;;13.70;99.90;;;;;;5093144;28;20365;-71
2022/06/06 04:59:38;;;;;;;10.90;6.78;;;13.70;99.90;;;;;;5092073;28;20012;-72
2022/06/06 05:02:05;;;;;;;14.98;6.97;;;13.70;99.90;;;;;;5093258;28;20099;-71
2022/06/06 05:04:31;;;;;;;11.25;5.90;;;13.70;99.90;;;;;;5093105;28;20051;-72
2022/06/06 05:07:19;;;;;;;8.63;5.45;;;13.50;99.90;;;;;;5091961;28;20028;-72
2022/06/06 05:09:57;;;;;;;14.35;5.45;;;13.30;99.90;;;;;;5092760;28;20625;-72
2022/06/06 05:12:35;;;;;;;8.73;5.15;;;13.30;99.90;;;;;;5079647;28;20545;-72
2022/06/06 05:15:24;;;;;;;11.10;5.95;;;13.50;99.90;;;;;;5093014;28;20028;-72
2022/06/06 05:18:17;;;;;;;11.65;5.75;;;13.50;99.90;;;;;;5082644;28;20076;-72
2022/06/06 05:21:09;;;;;;;8.75;5.60;;;13.70;99.90;;;;;;5092835;28;20483;-72
2022/06/06 05:23:44;;;;;;;12.98;6.32;;;13.70;99.90;;;;;;5092786;28;20036;-72
2022/06/06 05:26:40;;;;;;;9.10;5.28;;;13.80;99.90;;;;;;5092729;28;20035;-72
2022/06/06 05:29:54;;;;;;;7.80;5.70;;;13.70;99.90;;;;;;5091417;28;20027;-71
2022/06/06 05:32:29;;;;;;;10.85;5.53;;;13.80;99.90;;;;;;5076029;28;20097;-72
2022/06/06 05:35:03;;;;;;;10.25;5.05;;;13.90;99.90;;;;;;5091581;28;20100;-72
2022/06/06 05:37:48;;;;;;;9.90;4.72;;;13.80;99.90;;;;;;5091253;28;20088;-72
2022/06/06 05:40:43;;;;;;;11.32;4.82;;;14.00;99.90;;;;;;5084915;28;20025;-72
2022/06/06 05:43:41;;;;;;;7.68;4.88;;;14.20;99.90;;;;;;5089567;28;20068;-72
2022/06/06 05:46:21;;;;;;;14.63;5.15;;;14.20;99.90;;;;;;5071276;28;20162;-72
2022/06/06 05:49:05;;;;;;;12.10;4.88;;;14.50;99.90;;;;;;5091164;28;20055;-72
2022/06/06 05:51:55;;;;;;;8.48;4.50;;;14.50;99.90;;;;;;5089166;28;20068;-72
2022/06/06 05:54:44;;;;;;;6.97;4.38;;;14.50;99.90;;;;;;5093238;28;20093;-72
2022/06/06 05:57:31;;;;;;;7.95;4.25;;;14.60;99.90;;;;;;5076475;28;20032;-72
2022/06/06 06:00:06;;;;;;;12.00;4.20;;;14.70;99.90;;;;;;5096520;28;20032;-72
2022/06/06 06:02:49;;;;;;;9.93;4.20;;;15.00;99.90;;;;;;5096664;28;20031;-72
2022/06/06 06:05:19;;;;;;;6.10;3.80;;;14.80;99.90;;;;;;5096501;28;20075;-72
2022/06/06 06:07:55;;;;;;;8.18;3.63;;;14.70;99.90;;;;;;5095395;28;20198;-72
2022/06/06 06:10:28;;;;;;;6.18;3.28;;;14.50;99.90;;;;;;5090903;28;20048;-72
2022/06/06 06:13:15;;;;;;;6.10;3.15;;;14.50;99.90;;;;;;5089195;28;20183;-72
2022/06/06 06:15:43;;;;;;;7.20;3.72;;;14.60;99.90;;;;;;5087174;28;20035;-72
2022/06/06 06:18:42;;;;;;;6.05;3.33;;;14.80;99.90;;;;;;5085174;28;20029;-72
2022/06/06 06:21:13;;;;;;;11.85;3.03;;;14.80;99.90;;;;;;5087072;28;20532;-72
2022/06/06 06:23:46;;;;;;;5.60;3.40;;;14.70;99.90;;;;;;5081529;28;20043;-72
2022/06/06 06:26:13;;;;;;;5.85;2.88;;;14.90;99.90;;;;;;5078410;28;20436;-72
2022/06/06 06:28:43;;;;;;;6.10;2.80;;;14.90;99.90;;;;;;5086425;28;20528;-72
2022/06/06 06:31:22;;;;;;;7.47;3.05;;;14.90;99.90;;;;;;5079080;28;20043;-72
2022/06/06 06:34:22;;;;;;;9.18;2.83;;;15.00;99.90;;;;;;5079424;28;20070;-72
2022/06/06 06:37:17;;;;;;;7.13;3.10;;;15.20;99.90;;;;;;5078183;28;20028;-71
2022/06/06 06:40:07;;;;;;;11.43;3.13;;;15.10;99.90;;;;;;5083212;28;20456;-72
2022/06/06 06:43:05;;;;;;;4.32;2.65;;;15.30;99.90;;;;;;5101480;28;20116;-71
2022/06/06 06:45:37;;;;;;;6.25;2.35;;;15.20;99.90;;;;;;5084238;28;20126;-72
2022/06/06 06:48:11;;;;;;;7.13;2.63;;;15.20;99.90;;;;;;5095446;28;20027;-72
2022/06/06 06:50:50;;;;;;;10.20;3.05;;;15.00;99.90;;;;;;5093610;28;20047;-72
2022/06/06 06:53:53;;;;;;;7.50;2.80;;;14.90;99.90;;;;;;5090052;28;20484;-71
2022/06/06 06:57:00;;;;;;;6.35;2.25;;;15.00;99.90;;;;;;5078245;28;20035;-71
2022/06/06 06:59:49;;;;;;;9.40;3.03;;;15.30;99.90;;;;;;5061554;28;20107;-72
2022/06/06 07:08:57;;;;;;;7.25;2.70;;;15.60;99.90;;;;;;5083138;28;20066;-72
2022/06/06 07:11:25;;;;;;;8.52;2.10;;;15.60;99.90;;;;;;5092193;28;20035;-71
2022/06/06 07:14:39;;;;;;;5.68;2.35;;;15.50;99.90;;;;;;5088478;28;20052;-72
2022/06/06 07:17:08;;;;;;;5.90;2.20;;;15.60;99.90;;;;;;5051744;28;20045;-72
2022/06/06 07:19:58;;;;;;;5.95;2.15;;;15.90;99.90;;;;;;5075711;28;20489;-71
2022/06/06 07:22:28;;;;;;;4.72;2.03;;;16.00;99.90;;;;;;5094241;28;20115;-72
2022/06/06 07:24:57;;;;;;;10.55;2.60;;;16.30;99.90;;;;;;5093446;28;20031;-72
2022/06/06 07:27:23;;;;;;;7.78;2.40;;;16.40;99.90;;;;;;5075722;28;20017;-72
2022/06/06 07:29:48;;;;;;;5.93;2.30;;;16.60;99.90;;;;;;5083599;28;20477;-72
2022/06/06 07:32:36;;;;;;;7.43;2.63;;;16.40;99.90;;;;;;5076999;28;20025;-72
2022/06/06 07:35:20;;;;;;;5.40;2.35;;;16.40;99.90;;;;;;5085451;28;20074;-71
2022/06/06 07:38:27;;;;;;;5.32;2.17;;;16.20;99.90;;;;;;5075148;28;20012;-72
2022/06/06 07:41:05;;;;;;;10.77;3.20;;;15.90;99.90;;;;;;5077145;28;20040;-71
2022/06/06 07:44:10;;;;;;;5.18;2.45;;;15.80;99.90;;;;;;5081823;28;20039;-72
2022/06/06 07:46:44;;;;;;;8.40;2.35;;;15.90;99.90;;;;;;5091059;28;20036;-72
2022/06/06 07:49:13;;;;;;;8.75;2.40;;;16.00;99.90;;;;;;5087991;28;20522;-72
2022/06/06 07:51:51;;;;;;;5.32;1.83;;;16.00;99.90;;;;;;5079876;28;20098;-71
2022/06/06 07:54:25;;;;;;;5.13;2.42;;;16.10;99.90;;;;;;5074757;28;20032;-71
2022/06/06 07:57:16;;;;;;;3.80;1.92;;;16.30;99.90;;;;;;5093632;28;20473;-72
2022/06/06 08:00:04;;;;;;;6.27;2.23;;;16.90;99.90;;;;;;5090458;28;20047;-72
2022/06/06 08:02:46;;;;;;;6.95;2.20;;;17.10;99.90;;;;;;5074702;28;20032;-72
2022/06/06 08:05:39;;;;;;;7.60;1.83;;;17.00;99.90;;;;;;5075896;28;20495;-72
2022/06/06 08:08:11;;;;;;;4.82;2.05;;;16.80;99.90;;;;;;5074796;28;20021;-72
2022/06/06 08:10:42;;;;;;;4.30;1.83;;;16.70;99.90;;;;;;5074341;28;20090;-72
2022/06/06 08:13:36;;;;;;;10.32;2.03;;;16.80;99.90;;;;;;5074856;28;20024;-72
2022/06/06 08:16:29;;;;;;;3.35;1.38;;;16.70;99.90;;;;;;5074281;28;20040;-72
2022/06/06 08:19:07;;;;;;;6.78;1.70;;;16.40;99.90;;;;;;5073198;28;20511;-71
2022/06/06 08:21:39;;;;;;;8.02;1.75;;;16.50;99.90;;;;;;5094024;28;20060;-72
2022/06/06 08:24:10;;;;;;;3.40;1.33;;;16.80;99.90;;;;;;5078506;28;20036;-72
2022/06/06 08:26:41;;;;;;;4.60;1.27;;;16.80;99.90;;;;;;5081547;28;20044;-72
2022/06/06 08:29:08;;;;;;;6.05;1.83;;;17.00;99.90;;;;;;5089848;28;20028;-72
2022/06/06 08:31:34;;;;;;;8.15;2.08;;;16.80;99.90;;;;;;5078999;28;20032;-72
2022/06/06 08:33:59;;;;;;;5.45;1.60;;;16.90;99.90;;;;;;5082887;28;20376;-72
2022/06/06 08:36:31;;;;;;;3.72;1.35;;;17.00;99.90;;;;;;5077788;28;20064;-72
2022/06/06 08:39:10;;;;;;;5.45;1.27;;;17.40;99.90;;;;;;5072937;28;20802;-72
2022/06/06 08:42:19;;;;;;;5.13;1.50;;;17.50;99.90;;;;;;5092408;28;20019;-72
2022/06/06 08:45:04;;;;;;;3.60;1.30;;;17.70;99.90;;;;;;5086017;28;20040;-72
2022/06/06 08:47:39;;;;;;;3.92;1.20;;;17.30;99.90;;;;;;5101318;28;20023;-72
2022/06/06 08:53:01;;;;;;;6.22;2.30;;;17.10;99.90;;;;;;5073047;28;20029;-72
2022/06/06 08:55:35;;;;;;;4.65;1.30;;;17.10;99.90;;;;;;5095242;28;20461;-72
2022/06/06 08:58:34;;;;;;;3.97;1.35;;;17.50;99.90;;;;;;5081352;28;20024;-71
2022/06/06 09:01:22;;;;;;;3.22;1.38;;;17.10;99.90;;;;;;5074670;28;20037;-72
2022/06/06 09:04:25;;;;;;;4.43;1.48;;;17.60;99.90;;;;;;5085543;28;20379;-72
2022/06/06 09:07:34;;;;;;;7.57;1.50;;;18.00;99.90;;;;;;5094588;28;20512;-72
2022/06/06 09:10:18;;;;;;;4.22;1.67;;;17.90;99.90;;;;;;5084948;28;20046;-72
2022/06/06 09:13:12;;;;;;;3.90;1.10;;;17.50;99.90;;;;;;5078797;28;20032;-72
2022/06/06 09:16:05;;;;;;;3.78;1.20;;;17.20;99.90;;;;;;5081001;28;20062;-72
2022/06/06 09:19:15;;;;;;;6.15;1.27;;;17.10;99.90;;;;;;5088359;28;20048;-71
2022/06/06 09:22:08;;;;;;;6.80;1.10;;;17.00;99.90;;;;;;5071777;28;20031;-72
2022/06/06 09:24:53;;;;;;;7.57;1.60;;;17.30;99.90;;;;;;5071701;28;20036;-72
2022/06/06 09:27:34;;;;;;;3.58;1.20;;;17.30;99.90;;;;;;5069470;28;20033;-72
2022/06/06 09:30:24;;;;;;;6.28;1.20;;;17.70;99.90;;;;;;5071124;28;20028;-72
2022/06/06 09:33:22;;;;;;;3.70;1.40;;;18.10;99.90;;;;;;5053251;28;20024;-72
2022/06/06 09:36:25;;;;;;;10.65;1.50;;;18.30;99.90;;;;;;5071010;28;20027;-72
2022/06/06 09:39:07;;;;;;;3.17;1.17;;;18.00;99.90;;;;;;5085408;28;20032;-72
2022/06/06 09:41:45;;;;;;;3.05;0.98;;;17.90;99.90;;;;;;5077159;28;20112;-72
2022/06/06 09:44:57;;;;;;;5.65;1.42;;;18.20;99.90;;;;;;5092873;28;20036;-72
2022/06/06 09:47:52;;;;;;;4.03;1.13;;;17.90;99.90;;;;;;5087744;28;20489;-72
2022/06/06 09:50:48;;;;;;;8.82;1.20;;;17.90;99.90;;;;;;5085944;28;20083;-72
2022/06/06 10:00:39;;;;;;;5.20;0.93;;;18.40;99.90;;;;;;5093636;28;20565;-72
2022/06/06 10:03:17;;;;;;;2.70;1.00;;;18.20;99.90;;;;;;5081270;28;20024;-72
2022/06/06 10:05:48;;;;;;;5.20;1.25;;;17.90;99.90;;;;;;5079125;28;20505;-72
2022/06/06 10:08:26;;;;;;;9.13;1.30;;;17.60;99.90;;;;;;5074924;28;20073;-72
2022/06/06 10:11:16;;;;;;;6.10;1.10;;;17.50;99.90;;;;;;5077033;28;20496;-72
2022/06/06 10:13:42;;;;;;;5.60;1.30;;;17.40;99.90;;;;;;5072374;28;20016;-72
2022/06/06 10:16:33;;;;;;;3.65;1.30;;;17.40;99.90;;;;;;5071396;28;20078;-72
2022/06/06 10:19:18;;;;;;;9.05;1.52;;;18.00;99.90;;;;;;5072299;28;20035;-72
2022/06/06 10:22:13;;;;;;;4.30;1.50;;;18.20;99.90;;;;;;5071736;28;20028;-72
2022/06/06 10:25:04;;;;;;;2.97;1.52;;;18.80;99.90;;;;;;5080780;28;20047;-72
2022/06/06 10:27:50;;;;;;;6.97;1.33;;;19.10;99.90;;;;;;5075459;28;20347;-72
2022/06/06 10:30:19;;;;;;;9.25;1.38;;;19.10;99.90;;;;;;5099771;28;20035;-72
2022/06/06 10:32:59;;;;;;;11.73;0.98;;;18.70;99.90;;;;;;5082821;28;20062;-72
2022/06/06 10:35:44;;;;;;;5.50;0.80;;;18.40;99.90;;;;;;5078067;28;20136;-72
2022/06/06 10:38:49;;;;;;;4.75;1.00;;;17.80;99.90;;;;;;5074369;28;20391;-72
2022/06/06 10:41:38;;;;;;;10.63;1.80;;;17.60;99.90;;;;;;5077660;28;20063;-72
2022/06/06 10:44:23;;;;;;;8.45;1.58;;;17.40;99.90;;;;;;5079862;28;20094;-72
2022/06/06 10:47:17;;;;;;;5.03;1.00;;;17.80;99.90;;;;;;5079256;28;20159;-72
2022/06/06 10:49:55;;;;;;;6.75;1.10;;;18.00;99.90;;;;;;5082218;28;20542;-72
2022/06/06 10:52:54;;;;;;;6.63;1.38;;;18.30;99.90;;;;;;5079811;28;20067;-70
2022/06/06 10:56:16;;;;;;;2.90;1.15;;;18.40;99.90;;;;;;5076180;28;20029;-72
2022/06/06 10:59:01;;;;;;;;;;;18.70;99.90;;;;;;5078523;28;20040;-72
2022/06/06 11:01:54;;;;;;;7.05;1.38;;;18.90;99.90;;;;;;5082357;28;20445;-71
2022/06/06 11:04:47;;;;;;;8.05;0.90;;;19.30;99.90;;;;;;5079033;28;20101;-72
2022/06/06 11:07:50;;;;;;;3.42;0.98;;;18.80;99.90;;;;;;5084914;28;20055;-72
2022/06/06 11:10:16;;;;;;;2.90;1.02;;;19.40;99.90;;;;;;5084179;28;20060;-72
2022/06/06 11:13:27;;;;;;;3.70;1.02;;;19.10;99.90;;;;;;5078929;28;20169;-71
2022/06/06 11:16:05;;;;;;;7.68;0.98;;;18.40;99.90;;;;;;5075371;28;20032;-72
2022/06/06 11:18:46;;;;;;;9.68;1.52;;;18.10;99.90;;;;;;5093427;28;20020;-72
2022/06/06 11:21:17;;;;;;;5.90;1.15;;;18.30;99.90;;;;;;5087432;28;20546;-72
2022/06/06 11:23:51;;;;;;;7.85;1.33;;;18.60;99.90;;;;;;5084818;28;20463;-72
2022/06/06 11:26:38;;;;;;;4.57;1.40;;;19.00;99.90;;;;;;5079766;28;20040;-72
2022/06/06 11:29:31;;;;;;;3.75;0.80;;;19.20;99.90;;;;;;5077097;28;20060;-72
2022/06/06 11:32:02;;;;;;;;;;;19.10;99.90;;;;;;5086694;28;20434;-72
2022/06/06 11:34:47;;;;;;;3.47;0.85;;;18.90;99.90;;;;;;5064309;28;20403;-72
2022/06/06 11:37:31;;;;;;;4.10;1.38;;;18.70;99.90;;;;;;5079868;28;20040;-72
2022/06/06 11:40:05;;;;;;;6.07;1.17;;;18.60;99.90;;;;;;5084819;28;20035;-72
2022/06/06 11:42:49;;;;;;;2.80;0.80;;;18.70;99.90;;;;;;5111737;28;20114;-72
2022/06/06 11:45:53;;;;;;;8.13;1.10;;;18.80;99.90;;;;;;5097358;28;20099;-72
2022/06/06 11:48:31;;;;;;;4.25;1.20;;;18.70;99.90;;;;;;5086675;28;20031;-71
2022/06/06 11:51:32;;;;;;;10.70;1.35;;;18.40;99.90;;;;;;5076839;28;20055;-74
2022/06/06 11:54:07;;;;;;;6.18;1.35;;;18.20;99.90;;;;;;5071925;28;20103;-74
2022/06/06 11:56:58;;;;;;;7.85;1.10;;;18.00;99.90;;;;;;5071346;28;20029;-74
2022/06/06 11:59:42;;;;;;;6.50;1.10;;;17.70;99.90;;;;;;5071801;28;20032;-74
2022/06/06 12:02:26;;;;;;;4.38;1.50;;;17.60;99.90;;;;;;5072844;28;20036;-74
2022/06/06 12:05:26;;;;;;;3.03;1.00;;;17.70;99.90;;;;;;5075912;28;20028;-74
2022/06/06 12:08:10;;;;;;;4.00;1.05;;;17.60;99.90;;;;;;5074139;28;20032;-73
2022/06/06 12:10:47;;;;;;;3.22;1.25;;;17.30;99.90;;;;;;5073491;28;20127;-74
2022/06/06 12:13:25;;;;;;;11.13;1.40;;;17.30;99.90;;;;;;5072497;28;20123;-74
2022/06/06 12:16:12;;;;;;;7.43;1.85;;;17.70;99.90;;;;;;5073857;28;20024;-74
2022/06/06 12:19:05;;;;;;;6.40;1.38;;;17.80;99.90;;;;;;5073570;28;20033;-74
2022/06/06 12:21:54;;;;;;;11.32;1.90;;;17.80;99.90;;;;;;5073549;28;20032;-74
2022/06/06 12:24:40;;;;;;;3.30;1.10;;;18.00;99.90;;;;;;5073703;28;20029;-74
2022/06/06 12:27:11;;;;;;;7.55;1.88;;;17.60;99.90;;;;;;5073013;28;20042;-73
2022/06/06 12:30:16;;;;;;;7.18;1.60;;;17.80;99.90;;;;;;5073219;28;20043;-74
2022/06/06 12:32:58;;;;;;;4.53;1.05;;;17.80;99.90;;;;;;5073220;28;20020;-74
2022/06/06 12:35:48;;;;;;;7.88;1.10;;;17.60;99.90;;;;;;5075683;28;20043;-74
2022/06/06 12:38:25;;;;;;;5.60;1.00;;;17.80;99.90;;;;;;5075739;28;20431;-74
2022/06/06 12:40:58;;;;;;;4.30;1.35;;;17.60;99.90;;;;;;5072824;28;20025;-74
2022/06/06 12:43:36;;;;;;;3.00;1.08;;;17.50;99.90;;;;;;5093329;28;20488;-73
2022/06/06 12:46:21;;;;;;;6.65;1.15;;;17.40;99.90;;;;;;5093609;28;20023;-74
2022/06/06 12:49:15;;;;;;;5.10;1.25;;;17.60;99.90;;;;;;5091698;28;20548;-74
2022/06/06 12:51:55;;;;;;;4.25;1.10;;;17.70;99.90;;;;;;5091176;28;20111;-74
2022/06/06 12:55:26;;;;;;;4.32;1.10;;;17.80;99.90;;;;;;5093128;28;20032;-74
2022/06/06 12:57:50;;;;;;;3.90;1.38;;;17.80;99.90;;;;;;5093231;28;20446;-74
2022/06/06 13:01:37;;;;;;;5.75;1.30;;;17.90;99.90;;;;;;5093294;28;20024;-74
2022/06/06 13:03:17;;;;;;;9.10;1.48;;;17.90;99.90;;;;;;5092500;28;20062;-74
2022/06/06 13:06:07;;;;;;;6.65;1.33;;;17.70;99.90;;;;;;5093140;28;20028;-74
2022/06/06 13:08:57;;;;;;;3.80;1.27;;;17.50;99.90;;;;;;5092453;28;20032;-74
2022/06/06 13:11:35;;;;;;;6.57;1.73;;;17.40;99.90;;;;;;5093143;28;20114;-74
2022/06/06 13:14:24;;;;;;;5.93;1.40;;;17.40;99.90;;;;;;5091728;28;20134;-74
2022/06/06 13:16:59;;;;;;;5.53;1.67;;;17.40;99.90;;;;;;5092990;28;20063;-74
2022/06/06 13:19:36;;;;;;;6.78;1.30;;;17.70;99.90;;;;;;5091704;28;20024;-74
2022/06/06 13:22:23;;;;;;;3.20;1.30;;;17.80;99.90;;;;;;5093468;28;20034;-74
2022/06/06 13:25:14;;;;;;;4.00;1.40;;;18.00;99.90;;;;;;5092952;28;20024;-74
2022/06/06 13:27:40;;;;;;;6.80;1.50;;;17.80;99.90;;;;;;5079034;28;20056;-74
2022/06/06 13:30:20;;;;;;;5.40;1.48;;;17.80;99.90;;;;;;5092797;28;20067;-74
2022/06/06 13:33:03;;;;;;;8.52;1.25;;;18.00;99.90;;;;;;5091568;28;20040;-74
2022/06/06 13:35:34;;;;;;;3.95;1.10;;;17.60;99.90;;;;;;5092871;28;20036;-74
2022/06/06 13:38:23;;;;;;;6.65;1.15;;;17.60;99.90;;;;;;5091305;28;20024;-74
2022/06/06 13:41:20;;;;;;;6.00;1.52;;;17.70;99.90;;;;;;5080046;28;20488;-74
2022/06/06 13:44:16;;;;;;;8.38;1.65;;;17.50;99.90;;;;;;5081350;28;20063;-74
2022/06/06 13:47:14;;;;;;;4.32;1.40;;;17.50;99.90;;;;;;5070066;28;20048;-74
2022/06/06 13:50:08;;;;;;;4.57;1.15;;;17.40;99.90;;;;;;5080231;28;20027;-73
2022/06/06 13:52:52;;;;;;;4.97;1.10;;;17.30;99.90;;;;;;5092531;28;20032;-74
2022/06/06 13:55:27;;;;;;;5.63;1.50;;;17.40;99.90;;;;;;5092408;28;20484;-74
2022/06/06 13:58:28;;;;;;;4.85;1.42;;;17.50;99.90;;;;;;5091526;28;20040;-74
2022/06/06 14:01:09;;;;;;;10.57;1.50;;;17.50;99.90;;;;;;5091375;28;20062;-74
2022/06/06 14:03:53;;;;;;;5.05;1.42;;;17.50;99.90;;;;;;5092003;28;20024;-74
2022/06/06 14:06:25;;;;;;;4.38;1.27;;;17.30;99.90;;;;;;5091052;28;20043;-74
2022/06/06 14:08:58;;;;;;;;;;;17.10;99.90;;;;;;5092828;28;20038;-74
2022/06/06 14:12:00;;;;;;;5.70;1.35;;;17.10;99.90;;;;;;5091207;28;19923;-74
2022/06/06 14:14:26;;;;;;;5.18;1.48;;;17.20;99.90;;;;;;5085407;28;20036;-74
2022/06/06 14:17:00;;;;;;;4.07;1.27;;;17.30;99.90;;;;;;5095738;28;20496;-74